Time;durP1;ratioP1;P1;durP2;ratioP2;P2;SDS_P1;SDS_P2;PMS_P1;PMS_P2;Temp;Humidity;BMP_temperature;BMP_pressure;BME280_temperature;BME280_humidity;BME280_pressure;Samples;Min_cycle;Max_cycle;Signal;HPM_P1;HPM_P2
2024/01/13 00:00:19;;;;;;;11.00;6.65;;;3.00;99.90;;;;;;5105802;28;20092;-35
2024/01/13 00:02:45;;;;;;;10.88;6.60;;;3.00;99.90;;;;;;5087700;28;20040;-36
2024/01/13 00:05:11;;;;;;;11.15;7.47;;;3.00;99.90;;;;;;5107953;28;20046;-35
2024/01/13 00:07:37;;;;;;;13.95;8.73;;;3.00;99.90;;;;;;5092470;28;20395;-34
2024/01/13 00:10:03;;;;;;;11.15;7.25;;;3.00;99.90;;;;;;5110742;28;20046;-38
2024/01/13 00:12:29;;;;;;;9.57;6.18;;;3.00;99.90;;;;;;5097617;28;20043;-36
2024/01/13 00:14:54;;;;;;;10.82;5.97;;;3.00;99.90;;;;;;5085306;28;20036;-36
2024/01/13 00:17:20;;;;;;;6.95;4.85;;;3.00;99.90;;;;;;5103647;28;20036;-36
2024/01/13 00:19:46;;;;;;;9.77;6.05;;;3.00;99.90;;;;;;5090244;28;20526;-35
2024/01/13 00:22:11;;;;;;;8.35;5.35;;;2.90;99.90;;;;;;5106261;28;20104;-35
2024/01/13 00:24:37;;;;;;;9.80;5.47;;;2.90;99.90;;;;;;5104804;28;20082;-34
2024/01/13 00:27:03;;;;;;;7.93;5.13;;;2.90;99.90;;;;;;5110777;28;20516;-39
2024/01/13 00:29:29;;;;;;;7.78;5.25;;;2.90;99.90;;;;;;5092633;28;20028;-37
2024/01/13 00:31:55;;;;;;;6.50;4.25;;;2.90;99.90;;;;;;5109206;28;20043;-35
2024/01/13 00:34:21;;;;;;;5.88;4.70;;;2.90;99.90;;;;;;5084221;28;20040;-35
2024/01/13 00:36:46;;;;;;;5.28;4.15;;;2.90;99.90;;;;;;5092810;28;20032;-36
2024/01/13 00:39:12;;;;;;;5.72;3.80;;;2.80;99.90;;;;;;5083783;28;20072;-35
2024/01/13 00:41:38;;;;;;;6.20;4.28;;;2.90;99.90;;;;;;5104764;28;20114;-34
2024/01/13 00:44:03;;;;;;;6.30;4.07;;;2.80;99.90;;;;;;5104962;28;20040;-37
2024/01/13 00:46:29;;;;;;;7.28;4.22;;;2.90;99.90;;;;;;5106673;28;20035;-36
2024/01/13 00:48:55;;;;;;;6.28;4.55;;;2.80;99.90;;;;;;5107831;28;20039;-36
2024/01/13 00:51:21;;;;;;;7.80;4.53;;;2.80;99.90;;;;;;5102485;28;20043;-35
2024/01/13 00:53:47;;;;;;;7.43;4.72;;;2.90;99.90;;;;;;5109488;28;20441;-36
2024/01/13 00:56:12;;;;;;;8.68;4.85;;;2.80;99.90;;;;;;5063779;28;20063;-36
2024/01/13 00:58:39;;;;;;;6.45;4.25;;;2.80;99.90;;;;;;5104798;28;20152;-35
2024/01/13 01:01:04;;;;;;;7.65;4.40;;;2.90;99.90;;;;;;5099941;28;20078;-35
2024/01/13 01:03:30;;;;;;;7.18;4.25;;;2.90;99.90;;;;;;5101700;28;20035;-37
2024/01/13 01:05:58;;;;;;;7.45;4.30;;;2.90;99.90;;;;;;5107736;28;20047;-34
2024/01/13 01:08:23;;;;;;;7.68;4.50;;;2.90;99.90;;;;;;5103910;28;20046;-38
2024/01/13 01:10:49;;;;;;;6.47;4.50;;;2.90;99.90;;;;;;5096247;28;20043;-38
2024/01/13 01:13:15;;;;;;;9.52;4.97;;;2.90;99.90;;;;;;5108762;28;20120;-35
2024/01/13 01:15:42;;;;;;;8.75;4.50;;;2.90;99.90;;;;;;5112078;28;20130;-34
2024/01/13 01:18:08;;;;;;;7.93;4.65;;;2.90;99.90;;;;;;5108866;28;20503;-34
2024/01/13 01:20:33;;;;;;;8.75;5.35;;;2.90;99.90;;;;;;5106828;28;20069;-37
2024/01/13 01:22:59;;;;;;;10.38;5.78;;;2.80;99.90;;;;;;5105121;28;20375;-35
2024/01/13 01:25:25;;;;;;;7.15;5.50;;;2.90;99.90;;;;;;5115719;28;20035;-36
2024/01/13 01:27:50;;;;;;;8.88;5.57;;;2.90;99.90;;;;;;5104089;28;20037;-35
2024/01/13 01:30:16;;;;;;;11.38;6.38;;;2.90;99.90;;;;;;5090710;28;20053;-36
2024/01/13 01:32:42;;;;;;;8.88;5.78;;;2.80;99.90;;;;;;5109582;28;20527;-35
2024/01/13 01:35:08;;;;;;;7.03;5.22;;;2.90;99.90;;;;;;5096832;28;20143;-37
2024/01/13 01:37:34;;;;;;;9.18;5.10;;;2.90;99.90;;;;;;5107296;28;20074;-37
2024/01/13 01:40:00;;;;;;;7.80;5.07;;;2.90;99.90;;;;;;5102396;28;20071;-38
2024/01/13 01:42:26;;;;;;;8.98;5.15;;;2.90;99.90;;;;;;5111314;28;20108;-35
2024/01/13 01:44:52;;;;;;;7.50;4.85;;;2.90;99.90;;;;;;5101500;28;20040;-37
2024/01/13 01:47:20;;;;;;;7.55;4.55;;;2.90;99.90;;;;;;5114246;28;20042;-35
2024/01/13 01:49:47;;;;;;;7.35;4.53;;;2.90;99.90;;;;;;5108282;28;20440;-36
2024/01/13 01:52:14;;;;;;;6.43;4.43;;;2.90;99.90;;;;;;5114680;28;20445;-37
2024/01/13 01:54:41;;;;;;;6.53;4.40;;;2.90;99.90;;;;;;5104708;28;20032;-35
2024/01/13 01:57:10;;;;;;;7.45;4.85;;;2.90;99.90;;;;;;5102542;28;20085;-35
2024/01/13 01:59:35;;;;;;;7.65;4.55;;;2.90;99.90;;;;;;5111737;28;20043;-37
2024/01/13 02:02:02;;;;;;;7.60;4.50;;;2.90;99.90;;;;;;5108972;28;20047;-36
2024/01/13 02:04:27;;;;;;;7.80;5.13;;;3.00;99.90;;;;;;5093166;28;20043;-37
2024/01/13 02:06:53;;;;;;;6.88;4.53;;;3.00;99.90;;;;;;5101020;28;20043;-35
2024/01/13 02:09:19;;;;;;;8.50;5.20;;;2.90;99.90;;;;;;5114705;28;20069;-38
2024/01/13 02:11:45;;;;;;;7.43;4.75;;;3.00;99.90;;;;;;5109432;28;20036;-36
2024/01/13 02:14:11;;;;;;;8.73;5.68;;;3.00;99.90;;;;;;5102143;28;20039;-36
2024/01/13 02:16:37;;;;;;;10.40;5.30;;;3.00;99.90;;;;;;5084123;28;20121;-36
2024/01/13 02:19:03;;;;;;;7.93;5.65;;;3.00;99.90;;;;;;5099870;28;20510;-35
2024/01/13 02:21:28;;;;;;;8.00;5.40;;;3.00;99.90;;;;;;5104410;28;20494;-37
2024/01/13 02:23:54;;;;;;;7.40;5.20;;;3.00;99.90;;;;;;5107413;28;20042;-38
2024/01/13 02:26:20;;;;;;;8.77;5.90;;;3.00;99.90;;;;;;5113037;28;20110;-36
2024/01/13 02:28:46;;;;;;;11.35;5.47;;;3.00;99.90;;;;;;5064675;28;20039;-39
2024/01/13 02:31:12;;;;;;;8.02;5.53;;;3.00;99.90;;;;;;5111457;28;20491;-36
2024/01/13 02:33:38;;;;;;;10.00;6.65;;;3.00;99.90;;;;;;5102616;28;20116;-35
2024/01/13 02:36:04;;;;;;;8.63;5.95;;;3.00;99.90;;;;;;5095653;28;20122;-36
2024/01/13 02:38:30;;;;;;;12.32;6.10;;;3.00;99.90;;;;;;5109290;28;20070;-37
2024/01/13 02:40:55;;;;;;;10.82;6.20;;;3.00;99.90;;;;;;5100714;28;20471;-35
2024/01/13 02:43:21;;;;;;;7.60;6.05;;;3.00;99.90;;;;;;5112987;28;20071;-38
2024/01/13 02:45:47;;;;;;;9.82;6.50;;;3.00;99.90;;;;;;5101049;28;20436;-36
2024/01/13 02:48:20;;;;;;;10.63;5.65;;;3.00;99.90;;;;;;5112479;28;20067;-35
2024/01/13 02:50:57;;;;;;;;;;;3.00;99.90;;;;;;5094053;28;20036;-35
2024/01/13 02:53:23;;;;;;;8.80;5.90;;;3.00;99.90;;;;;;5082847;28;19919;-38
2024/01/13 02:55:48;;;;;;;7.63;5.68;;;3.00;99.90;;;;;;5109941;28;20119;-36
2024/01/13 02:58:14;;;;;;;7.57;5.57;;;3.00;99.90;;;;;;5102619;28;20039;-36
2024/01/13 03:00:40;;;;;;;10.05;6.25;;;3.00;99.90;;;;;;5110221;28;20506;-36
2024/01/13 03:03:06;;;;;;;12.25;6.50;;;3.00;99.90;;;;;;5104183;28;20112;-35
2024/01/13 03:05:32;;;;;;;8.93;5.90;;;3.00;99.90;;;;;;5112341;28;20459;-35
2024/01/13 03:07:57;;;;;;;9.82;6.63;;;3.00;99.90;;;;;;5108731;28;20046;-35
2024/01/13 03:10:23;;;;;;;8.48;6.00;;;3.00;99.90;;;;;;5082664;28;20083;-38
2024/01/13 03:12:49;;;;;;;9.25;6.63;;;3.00;99.90;;;;;;5109032;28;20067;-35
2024/01/13 03:15:15;;;;;;;9.73;6.15;;;3.00;99.90;;;;;;5095027;28;20038;-36
2024/01/13 03:17:40;;;;;;;10.90;6.68;;;3.00;99.90;;;;;;5093717;28;20040;-38
2024/01/13 03:20:07;;;;;;;8.65;6.03;;;3.00;99.90;;;;;;5088527;28;20478;-35
2024/01/13 03:22:32;;;;;;;8.43;6.00;;;3.00;99.90;;;;;;5090375;28;20097;-39
2024/01/13 03:24:58;;;;;;;10.15;6.28;;;3.00;99.90;;;;;;5102942;28;20043;-39
2024/01/13 03:27:24;;;;;;;8.43;5.53;;;3.00;99.90;;;;;;5102482;28;20039;-37
2024/01/13 03:29:50;;;;;;;11.45;6.18;;;3.00;99.90;;;;;;5107699;28;20555;-37
2024/01/13 03:32:15;;;;;;;11.40;7.10;;;3.00;99.90;;;;;;5101203;28;20047;-38
2024/01/13 03:34:41;;;;;;;9.32;6.10;;;3.00;99.90;;;;;;5110017;28;20513;-36
2024/01/13 03:37:07;;;;;;;8.27;5.97;;;3.00;99.90;;;;;;5111667;28;20046;-37
2024/01/13 03:39:33;;;;;;;10.50;6.05;;;3.00;99.90;;;;;;5103130;28;20407;-36
2024/01/13 03:41:59;;;;;;;12.50;6.18;;;3.10;99.90;;;;;;5090339;28;20051;-36
2024/01/13 03:44:25;;;;;;;7.70;5.45;;;3.00;99.90;;;;;;5092133;28;20047;-38
2024/01/13 03:46:51;;;;;;;10.40;6.45;;;3.00;99.90;;;;;;5107087;28;20040;-39
2024/01/13 03:49:17;;;;;;;11.93;6.40;;;3.00;99.90;;;;;;5105958;28;20043;-36
2024/01/13 03:51:42;;;;;;;8.50;6.03;;;3.00;99.90;;;;;;5085220;28;20040;-35
2024/01/13 03:54:08;;;;;;;10.07;6.15;;;3.00;99.90;;;;;;5111890;28;20043;-34
2024/01/13 03:56:34;;;;;;;9.13;5.85;;;3.00;99.90;;;;;;5098250;28;20120;-35
2024/01/13 03:59:00;;;;;;;8.05;5.72;;;3.00;99.90;;;;;;5111624;28;20043;-36
2024/01/13 04:01:25;;;;;;;10.40;6.65;;;3.00;99.90;;;;;;5106643;28;20474;-35
2024/01/13 04:03:51;;;;;;;9.02;5.47;;;3.00;99.90;;;;;;5091917;28;20039;-36
2024/01/13 04:06:17;;;;;;;9.35;5.60;;;3.00;99.90;;;;;;5086936;28;20036;-35
2024/01/13 04:08:44;;;;;;;9.38;4.75;;;3.00;99.90;;;;;;5096376;28;20036;-36
2024/01/13 04:11:10;;;;;;;10.02;5.38;;;3.00;99.90;;;;;;5111571;28;20047;-36
2024/01/13 04:13:39;;;;;;;9.15;5.53;;;3.10;99.90;;;;;;5079698;28;20101;-38
2024/01/13 04:16:05;;;;;;;7.10;5.50;;;3.10;99.90;;;;;;5108397;28;20032;-36
2024/01/13 04:18:30;;;;;;;8.95;5.47;;;3.10;99.90;;;;;;5105880;28;20032;-36
2024/01/13 04:20:56;;;;;;;9.80;5.45;;;3.10;99.90;;;;;;5092221;28;20046;-36
2024/01/13 04:23:22;;;;;;;6.82;5.18;;;3.10;99.90;;;;;;5106800;28;20092;-35
2024/01/13 04:25:48;;;;;;;8.40;5.22;;;3.10;99.90;;;;;;5104264;28;20513;-37
2024/01/13 04:28:13;;;;;;;8.82;5.00;;;3.10;99.90;;;;;;5105722;28;20035;-35
2024/01/13 04:30:39;;;;;;;8.60;5.57;;;3.00;99.90;;;;;;5100575;28;20087;-39
2024/01/13 04:33:05;;;;;;;9.25;4.88;;;3.10;99.90;;;;;;5106897;28;20406;-37
2024/01/13 04:35:31;;;;;;;9.50;5.65;;;3.10;99.90;;;;;;5109963;28;20028;-37
2024/01/13 04:37:57;;;;;;;7.03;4.97;;;3.10;99.90;;;;;;5078720;28;20080;-35
2024/01/13 04:40:23;;;;;;;7.25;5.05;;;3.10;99.90;;;;;;5106009;28;20120;-36
2024/01/13 04:42:48;;;;;;;8.52;5.15;;;3.10;99.90;;;;;;5106191;28;20089;-35
2024/01/13 04:45:14;;;;;;;9.20;4.90;;;3.10;99.90;;;;;;5104481;28;20525;-38
2024/01/13 04:47:40;;;;;;;6.95;4.95;;;3.10;99.90;;;;;;5107985;28;20031;-35
2024/01/13 04:50:06;;;;;;;8.52;5.22;;;3.10;99.90;;;;;;5093326;28;20039;-35
2024/01/13 04:52:32;;;;;;;9.63;5.63;;;3.10;99.90;;;;;;5104870;28;20028;-34
2024/01/13 04:54:58;;;;;;;9.85;5.20;;;3.10;99.90;;;;;;5102727;28;20119;-38
2024/01/13 04:57:23;;;;;;;10.80;5.80;;;3.10;99.90;;;;;;5106273;28;20040;-39
2024/01/13 04:59:49;;;;;;;8.07;5.03;;;3.10;99.90;;;;;;5106207;28;20130;-36
2024/01/13 05:02:15;;;;;;;10.23;5.88;;;3.00;99.90;;;;;;5100195;28;20039;-36
2024/01/13 05:04:41;;;;;;;7.15;5.00;;;3.00;99.90;;;;;;5089701;28;20114;-39
2024/01/13 05:07:09;;;;;;;9.65;4.95;;;3.10;99.90;;;;;;5102682;28;20451;-35
2024/01/13 05:09:35;;;;;;;8.95;5.10;;;3.00;99.90;;;;;;5111337;28;20104;-37
2024/01/13 05:12:01;;;;;;;9.57;5.43;;;3.10;99.90;;;;;;5099724;28;20048;-38
2024/01/13 05:14:27;;;;;;;7.10;4.50;;;3.10;99.90;;;;;;5106337;28;20023;-35
2024/01/13 05:16:52;;;;;;;9.82;4.85;;;3.00;99.90;;;;;;5106187;28;20039;-38
2024/01/13 05:19:18;;;;;;;8.90;4.78;;;3.00;99.90;;;;;;5096022;28;20163;-36
2024/01/13 05:21:44;;;;;;;9.88;5.28;;;3.00;99.90;;;;;;5107170;28;20054;-35
2024/01/13 05:24:10;;;;;;;7.80;4.50;;;3.00;99.90;;;;;;5096006;28;20074;-35
2024/01/13 05:26:37;;;;;;;7.50;4.25;;;3.00;99.90;;;;;;5101906;28;20043;-37
2024/01/13 05:29:03;;;;;;;8.55;4.35;;;3.00;99.90;;;;;;5074748;28;20039;-37
2024/01/13 05:31:29;;;;;;;9.32;4.30;;;3.00;99.90;;;;;;5105881;28;20138;-39
2024/01/13 05:33:55;;;;;;;6.63;4.40;;;3.00;99.90;;;;;;5102820;28;20036;-38
2024/01/13 05:36:22;;;;;;;7.10;4.80;;;3.00;99.90;;;;;;5104297;28;20501;-35
2024/01/13 05:38:48;;;;;;;6.93;3.90;;;3.00;99.90;;;;;;5094656;28;20044;-37
2024/01/13 05:41:14;;;;;;;7.43;3.60;;;3.00;99.90;;;;;;5097977;28;20093;-36
2024/01/13 05:43:40;;;;;;;6.25;3.78;;;3.00;99.90;;;;;;5097231;28;20059;-37
2024/01/13 05:46:05;;;;;;;6.68;3.35;;;3.00;99.90;;;;;;5109628;28;20073;-40
2024/01/13 05:48:31;;;;;;;7.13;3.83;;;3.00;99.90;;;;;;5099522;28;20605;-36
2024/01/13 05:50:57;;;;;;;6.70;3.60;;;3.00;99.90;;;;;;5090796;28;20078;-36
2024/01/13 05:53:23;;;;;;;5.75;3.30;;;3.10;99.90;;;;;;5103473;28;20040;-38
2024/01/13 05:55:49;;;;;;;6.68;3.35;;;3.10;99.90;;;;;;5095620;28;20089;-37
2024/01/13 05:58:14;;;;;;;5.57;3.35;;;3.00;99.90;;;;;;5114984;28;20058;-38
2024/01/13 06:00:40;;;;;;;6.75;3.28;;;3.00;99.90;;;;;;5099204;28;20111;-36
2024/01/13 06:03:06;;;;;;;5.53;3.35;;;3.00;99.90;;;;;;5098532;28;20464;-37
2024/01/13 06:05:32;;;;;;;6.28;3.67;;;3.00;99.90;;;;;;5101578;28;20561;-36
2024/01/13 06:07:57;;;;;;;5.32;3.38;;;3.00;99.90;;;;;;5104869;28;20054;-36
2024/01/13 06:10:23;;;;;;;6.65;3.58;;;3.00;99.90;;;;;;5107258;28;20074;-39
2024/01/13 06:12:49;;;;;;;4.57;3.53;;;3.00;99.90;;;;;;5104863;28;20074;-37
2024/01/13 06:15:15;;;;;;;4.88;3.10;;;3.00;99.90;;;;;;5093786;28;20032;-38
2024/01/13 06:17:41;;;;;;;7.75;3.35;;;3.00;99.90;;;;;;5095283;28;20066;-38
2024/01/13 06:20:08;;;;;;;6.25;3.22;;;3.00;99.90;;;;;;5109963;28;20596;-37
2024/01/13 06:22:34;;;;;;;4.80;2.92;;;3.00;99.90;;;;;;5099210;28;20044;-37
2024/01/13 06:25:00;;;;;;;5.55;3.28;;;3.00;99.90;;;;;;5078982;28;20486;-37
2024/01/13 06:27:26;;;;;;;5.00;3.22;;;3.00;99.90;;;;;;5103756;28;20121;-36
2024/01/13 06:29:51;;;;;;;5.38;3.53;;;3.00;99.90;;;;;;5111061;28;20533;-37
2024/01/13 06:32:17;;;;;;;5.43;3.80;;;3.00;99.90;;;;;;5091725;28;20112;-36
2024/01/13 06:34:43;;;;;;;8.02;4.60;;;2.90;99.90;;;;;;5111389;28;20040;-36
2024/01/13 06:37:09;;;;;;;6.38;3.85;;;3.00;99.90;;;;;;5105107;28;20040;-38
2024/01/13 06:39:34;;;;;;;7.25;3.78;;;2.90;99.90;;;;;;5094495;28;20105;-36
2024/01/13 06:42:05;;;;;;;6.07;4.38;;;2.90;99.90;;;;;;5101108;28;20086;-36
2024/01/13 06:44:34;;;;;;;10.60;4.60;;;2.90;99.90;;;;;;5097119;28;20039;-36
2024/01/13 06:47:02;;;;;;;7.65;4.47;;;2.90;99.90;;;;;;5101014;28;20035;-35
2024/01/13 06:49:27;;;;;;;7.45;4.13;;;2.90;99.90;;;;;;5102017;28;20043;-33
2024/01/13 06:51:53;;;;;;;9.13;4.93;;;2.90;99.90;;;;;;5080907;28;20036;-36
2024/01/13 06:54:19;;;;;;;9.40;4.65;;;3.00;99.90;;;;;;5109407;28;20063;-38
2024/01/13 06:56:45;;;;;;;8.10;4.60;;;2.90;99.90;;;;;;5078195;28;20104;-39
2024/01/13 06:59:11;;;;;;;7.88;4.80;;;2.90;99.90;;;;;;5081163;28;20027;-38
2024/01/13 07:01:36;;;;;;;10.32;5.38;;;2.90;99.90;;;;;;5103054;28;20044;-36
2024/01/13 07:04:02;;;;;;;8.02;5.25;;;2.90;99.90;;;;;;5101183;28;20035;-36
2024/01/13 07:06:28;;;;;;;10.20;5.22;;;2.90;99.90;;;;;;5099164;28;20031;-36
2024/01/13 07:08:55;;;;;;;43.50;20.38;;;2.90;99.90;;;;;;5106341;28;20161;-35
2024/01/13 07:11:21;;;;;;;27.08;17.33;;;3.00;99.90;;;;;;5097917;28;20067;-37
2024/01/13 07:13:46;;;;;;;22.80;13.57;;;3.00;99.90;;;;;;5099066;28;20530;-36
2024/01/13 07:16:12;;;;;;;33.38;19.50;;;3.00;99.90;;;;;;5109898;28;20724;-35
2024/01/13 07:18:38;;;;;;;15.27;9.50;;;3.00;99.90;;;;;;5098970;28;20032;-37
2024/01/13 07:21:05;;;;;;;12.95;8.73;;;3.00;99.90;;;;;;5102876;28;20043;-35
2024/01/13 07:23:32;;;;;;;30.42;17.20;;;3.10;99.90;;;;;;5073095;28;20059;-35
2024/01/13 07:25:58;;;;;;;12.23;7.20;;;3.10;99.90;;;;;;5084723;28;20126;-35
2024/01/13 07:28:24;;;;;;;8.15;5.40;;;3.00;99.90;;;;;;5075700;28;20036;-35
2024/01/13 07:30:50;;;;;;;15.85;10.00;;;3.10;99.90;;;;;;5088208;28;20049;-36
2024/01/13 07:33:16;;;;;;;11.35;9.10;;;3.10;99.90;;;;;;5098116;28;20040;-35
2024/01/13 07:35:42;;;;;;;22.13;14.75;;;3.10;99.90;;;;;;5101010;28;20057;-35
2024/01/13 07:38:07;;;;;;;13.35;9.40;;;3.10;99.90;;;;;;5080307;28;20482;-35
2024/01/13 07:40:33;;;;;;;8.43;5.43;;;3.10;99.90;;;;;;5094491;28;20410;-35
2024/01/13 07:42:59;;;;;;;7.22;5.03;;;3.10;99.90;;;;;;5101243;28;20058;-35
2024/01/13 07:45:25;;;;;;;7.05;4.82;;;3.10;99.90;;;;;;5098127;28;20039;-35
2024/01/13 07:47:50;;;;;;;7.65;4.75;;;3.10;99.90;;;;;;5099393;28;20040;-35
2024/01/13 07:50:17;;;;;;;8.13;4.72;;;3.10;99.90;;;;;;5083857;28;20122;-35
2024/01/13 07:52:42;;;;;;;7.95;5.25;;;3.20;99.90;;;;;;5099485;28;20101;-36
2024/01/13 07:55:08;;;;;;;9.05;5.68;;;3.20;99.90;;;;;;5091426;28;20737;-34
2024/01/13 07:57:35;;;;;;;8.85;5.20;;;3.20;99.90;;;;;;5086989;28;20027;-36
2024/01/13 08:00:01;;;;;;;7.05;5.10;;;3.20;99.90;;;;;;5101216;28;20064;-35
2024/01/13 08:02:27;;;;;;;7.53;4.93;;;3.20;99.90;;;;;;5083964;28;20047;-34
2024/01/13 08:04:53;;;;;;;7.75;5.35;;;3.20;99.90;;;;;;5095781;28;20421;-34
2024/01/13 08:07:20;;;;;;;10.95;6.28;;;3.20;99.90;;;;;;5102144;28;20027;-35
2024/01/13 08:09:47;;;;;;;9.73;5.85;;;3.30;99.90;;;;;;5103869;28;20106;-35
2024/01/13 08:12:13;;;;;;;9.60;6.00;;;3.30;99.90;;;;;;5092751;28;20524;-36
2024/01/13 08:14:39;;;;;;;9.48;6.53;;;3.20;99.90;;;;;;5094093;28;20036;-35
2024/01/13 08:17:06;;;;;;;9.05;6.15;;;3.30;99.90;;;;;;5070488;28;20035;-35
2024/01/13 08:19:32;;;;;;;10.57;6.28;;;3.30;99.90;;;;;;5092775;28;20069;-35
2024/01/13 08:21:58;;;;;;;7.82;5.43;;;3.30;99.90;;;;;;5101953;28;20384;-35
2024/01/13 08:24:23;;;;;;;8.40;5.40;;;3.30;99.90;;;;;;5075188;28;20118;-35
2024/01/13 08:26:49;;;;;;;10.48;4.63;;;3.30;99.90;;;;;;5082298;28;20059;-35
2024/01/13 08:29:15;;;;;;;8.63;4.90;;;3.30;99.90;;;;;;5081324;28;20036;-36
2024/01/13 08:31:41;;;;;;;9.15;5.25;;;3.40;99.90;;;;;;5063466;28;20397;-35
2024/01/13 08:34:08;;;;;;;8.25;4.95;;;3.40;99.90;;;;;;5065411;28;20036;-36
2024/01/13 08:36:34;;;;;;;9.65;5.28;;;3.30;99.90;;;;;;5064456;28;20381;-35
2024/01/13 08:39:00;;;;;;;8.70;5.10;;;3.40;99.90;;;;;;5072610;28;20051;-35
2024/01/13 08:41:25;;;;;;;9.95;5.43;;;3.30;99.90;;;;;;5074306;28;20072;-35
2024/01/13 08:43:51;;;;;;;6.55;4.43;;;3.40;99.90;;;;;;5074327;28;20398;-35
2024/01/13 08:46:17;;;;;;;8.23;5.65;;;3.40;99.90;;;;;;5058530;28;20044;-34
2024/01/13 08:48:42;;;;;;;7.85;4.82;;;3.40;99.90;;;;;;5066752;28;20516;-36
2024/01/13 08:51:08;;;;;;;7.63;4.88;;;3.50;99.90;;;;;;5076228;28;20924;-36
2024/01/13 08:53:34;;;;;;;9.85;5.25;;;3.50;99.90;;;;;;5070116;28;20557;-35
2024/01/13 08:56:00;;;;;;;14.60;6.40;;;3.50;99.90;;;;;;5078945;28;20036;-35
2024/01/13 08:58:26;;;;;;;12.23;7.15;;;3.50;99.90;;;;;;5075721;28;20044;-35
2024/01/13 09:00:54;;;;;;;17.83;8.73;;;3.50;99.90;;;;;;5069276;28;20079;-35
2024/01/13 09:03:21;;;;;;;19.80;9.60;;;3.60;99.90;;;;;;5060345;28;20427;-35
2024/01/13 09:05:47;;;;;;;17.33;9.35;;;3.60;99.90;;;;;;5061934;28;20110;-35
2024/01/13 09:08:13;;;;;;;19.27;10.73;;;3.60;99.90;;;;;;5069645;28;20048;-37
2024/01/13 09:10:39;;;;;;;23.83;10.85;;;3.60;99.90;;;;;;5078611;28;20041;-37
2024/01/13 09:13:05;;;;;;;21.48;10.82;;;3.60;99.90;;;;;;5070933;28;20145;-35
2024/01/13 09:15:31;;;;;;;24.05;11.65;;;3.60;99.90;;;;;;5074378;28;20581;-36
2024/01/13 09:17:57;;;;;;;27.95;12.80;;;3.60;99.90;;;;;;5061790;28;20447;-35
2024/01/13 09:20:24;;;;;;;26.70;13.82;;;3.60;99.90;;;;;;5070902;28;20573;-35
2024/01/13 09:22:49;;;;;;;31.73;14.63;;;3.60;99.90;;;;;;5054950;28;20055;-35
2024/01/13 09:25:15;;;;;;;33.90;14.43;;;3.60;99.90;;;;;;5074542;28;20418;-35
2024/01/13 09:27:41;;;;;;;28.95;14.27;;;3.60;99.90;;;;;;5076022;28;20044;-37
2024/01/13 09:30:07;;;;;;;32.10;16.80;;;3.60;99.90;;;;;;5068515;28;20147;-35
2024/01/13 09:32:33;;;;;;;37.85;18.08;;;3.60;99.90;;;;;;5084367;28;20056;-34
2024/01/13 09:34:59;;;;;;;38.22;18.00;;;3.70;99.90;;;;;;5077959;28;20470;-34
2024/01/13 09:37:24;;;;;;;40.17;20.15;;;3.60;99.90;;;;;;5084992;28;20126;-34
2024/01/13 09:39:51;;;;;;;37.78;18.70;;;3.60;99.90;;;;;;5067210;28;20550;-35
2024/01/13 09:42:29;;;;;;;43.67;20.00;;;3.60;99.90;;;;;;5063260;28;20127;-36
2024/01/13 09:44:55;;;;;;;41.17;20.98;;;3.60;99.90;;;;;;5074214;28;20041;-35
2024/01/13 09:47:21;;;;;;;48.33;21.83;;;3.60;99.90;;;;;;5070034;28;20032;-35
2024/01/13 09:49:48;;;;;;;45.33;22.23;;;3.60;99.90;;;;;;5072515;28;20028;-35
2024/01/13 09:52:14;;;;;;;47.33;22.23;;;3.60;99.90;;;;;;5077360;28;20044;-35
2024/01/13 09:54:47;;;;;;;47.58;22.40;;;3.70;99.90;;;;;;5085828;28;20042;-36
2024/01/13 09:57:13;;;;;;;49.80;23.42;;;3.70;99.90;;;;;;5082897;28;20040;-35
2024/01/13 09:59:40;;;;;;;48.78;23.02;;;3.70;99.90;;;;;;5073718;28;20033;-35
2024/01/13 10:02:11;;;;;;;48.22;23.80;;;3.70;99.90;;;;;;5081497;28;20124;-35
2024/01/13 10:04:37;;;;;;;47.20;23.92;;;3.70;99.90;;;;;;5079311;28;20052;-36
2024/01/13 10:07:04;;;;;;;51.17;25.70;;;3.70;99.90;;;;;;5072292;28;20414;-35
2024/01/13 10:09:30;;;;;;;51.20;24.15;;;3.80;99.90;;;;;;5084406;28;20072;-35
2024/01/13 10:11:56;;;;;;;54.13;26.20;;;3.80;99.90;;;;;;5067235;28;20510;-35
2024/01/13 10:14:23;;;;;;;58.05;26.63;;;3.80;99.90;;;;;;5081240;28;20036;-35
2024/01/13 10:16:50;;;;;;;51.20;26.65;;;3.80;99.90;;;;;;5083279;28;20041;-35
2024/01/13 10:19:15;;;;;;;46.63;24.33;;;3.80;99.90;;;;;;5075968;28;20040;-35
2024/01/13 10:21:42;;;;;;;48.58;25.67;;;3.80;99.90;;;;;;5083728;28;20373;-35
2024/01/13 10:24:07;;;;;;;43.33;22.80;;;3.80;99.90;;;;;;5083053;28;20044;-35
2024/01/13 10:26:34;;;;;;;49.35;24.67;;;3.80;99.90;;;;;;5080352;28;20225;-35
2024/01/13 10:29:00;;;;;;;49.88;24.60;;;3.80;99.90;;;;;;5081703;28;20531;-35
2024/01/13 10:31:26;;;;;;;47.92;24.88;;;3.80;99.90;;;;;;5080668;28;20052;-35
2024/01/13 10:33:52;;;;;;;51.40;25.33;;;3.80;99.90;;;;;;5084616;28;20483;-36
2024/01/13 10:36:24;;;;;;;52.53;25.90;;;3.80;99.90;;;;;;5083999;28;20491;-35
2024/01/13 10:38:57;;;;;;;52.95;26.63;;;3.80;99.90;;;;;;5060760;28;20045;-35
2024/01/13 10:41:28;;;;;;;53.78;27.15;;;3.90;99.90;;;;;;5079469;28;20044;-36
2024/01/13 10:43:58;;;;;;;54.63;27.45;;;3.90;99.90;;;;;;5066784;28;20055;-35
2024/01/13 10:46:26;;;;;;;51.00;27.92;;;3.90;99.90;;;;;;5072906;28;20047;-37
2024/01/13 10:49:00;;;;;;;53.92;26.70;;;3.90;99.90;;;;;;5072165;28;20041;-35
2024/01/13 10:51:37;;;;;;;52.33;26.35;;;3.90;99.90;;;;;;5085987;28;20054;-35
2024/01/13 10:54:04;;;;;;;52.10;26.90;;;3.90;99.90;;;;;;5081687;28;20158;-36
2024/01/13 10:56:30;;;;;;;46.75;24.52;;;3.90;99.90;;;;;;5077807;28;20118;-36
2024/01/13 10:58:58;;;;;;;46.17;25.42;;;3.90;99.90;;;;;;5082266;28;20123;-36
2024/01/13 11:01:27;;;;;;;45.72;27.02;;;4.00;99.90;;;;;;5081718;28;20043;-36
2024/01/13 11:03:57;;;;;;;52.50;26.38;;;4.00;99.90;;;;;;5078103;28;20037;-35
2024/01/13 11:06:25;;;;;;;49.15;26.85;;;4.00;99.90;;;;;;5074835;28;20040;-36
2024/01/13 11:08:52;;;;;;;55.22;26.65;;;4.00;99.90;;;;;;5077695;28;20042;-35
2024/01/13 11:11:29;;;;;;;48.70;25.63;;;4.00;99.90;;;;;;5071875;28;20549;-36
2024/01/13 11:14:20;;;;;;;47.72;26.30;;;4.00;99.90;;;;;;5073577;28;20491;-36
2024/01/13 11:16:47;;;;;;;51.55;27.27;;;4.00;99.90;;;;;;5084174;28;20115;-37
2024/01/13 11:19:13;;;;;;;53.40;28.27;;;4.10;99.90;;;;;;5052443;28;20048;-35
2024/01/13 11:21:41;;;;;;;51.28;28.85;;;4.20;99.90;;;;;;5081656;28;20048;-35
2024/01/13 11:24:12;;;;;;;53.13;28.30;;;4.20;99.90;;;;;;5068711;28;20047;-36
2024/01/13 11:26:48;;;;;;;50.53;28.05;;;4.20;99.90;;;;;;5074164;28;20041;-35
2024/01/13 11:29:21;;;;;;;52.97;28.52;;;4.30;99.90;;;;;;5069252;28;20105;-35
2024/01/13 11:31:53;;;;;;;50.57;29.77;;;4.30;99.90;;;;;;5076360;28;20084;-36
2024/01/13 11:34:19;;;;;;;52.85;29.90;;;4.30;99.90;;;;;;5079726;28;20293;-35
2024/01/13 11:36:48;;;;;;;54.60;30.00;;;4.30;99.90;;;;;;5056803;28;20080;-36
2024/01/13 11:39:15;;;;;;;54.42;30.25;;;4.30;99.90;;;;;;5081016;28;20039;-36
2024/01/13 11:41:55;;;;;;;54.67;30.17;;;4.30;99.90;;;;;;5077438;28;20033;-35
2024/01/13 11:44:42;;;;;;;56.67;29.95;;;4.30;99.90;;;;;;5086207;28;20490;-36
2024/01/13 11:47:09;;;;;;;53.95;29.80;;;4.30;99.90;;;;;;5084449;28;20047;-36
2024/01/13 11:49:45;;;;;;;58.72;31.52;;;4.30;99.90;;;;;;5082167;28;20051;-35
2024/01/13 11:52:13;;;;;;;61.88;30.15;;;4.20;99.90;;;;;;5081182;28;20399;-36
2024/01/13 11:54:40;;;;;;;58.13;31.58;;;4.20;99.90;;;;;;5083967;28;20036;-37
2024/01/13 11:57:12;;;;;;;60.88;31.33;;;4.20;99.90;;;;;;5077700;28;20085;-35
2024/01/13 11:59:39;;;;;;;63.00;31.73;;;4.20;99.90;;;;;;5087268;28;20036;-35
2024/01/13 12:02:05;;;;;;;57.55;31.13;;;4.20;99.90;;;;;;5079007;28;20041;-35
2024/01/13 12:04:33;;;;;;;58.47;30.73;;;4.10;99.90;;;;;;5078687;28;20513;-35
2024/01/13 12:06:59;;;;;;;56.60;30.20;;;4.20;99.90;;;;;;5082771;28;20032;-36
2024/01/13 12:09:27;;;;;;;57.08;29.75;;;4.30;99.90;;;;;;5085457;28;20055;-35
2024/01/13 12:12:00;;;;;;;59.75;31.27;;;4.20;99.90;;;;;;5045230;28;20041;-36
2024/01/13 12:14:27;;;;;;;;;;;4.30;99.90;;;;;;5067580;28;20120;-35
2024/01/13 12:16:56;;;;;;;56.65;27.35;;;4.30;99.90;;;;;;5075210;28;19920;-36
2024/01/13 12:19:25;;;;;;;59.40;30.23;;;4.30;99.90;;;;;;5077872;28;20040;-36
2024/01/13 12:21:51;;;;;;;55.47;29.70;;;4.30;99.90;;;;;;5081201;28;20044;-36
2024/01/13 12:24:28;;;;;;;57.80;29.63;;;4.30;99.90;;;;;;5072069;28;20036;-37
2024/01/13 12:26:54;;;;;;;53.40;29.48;;;4.40;99.90;;;;;;5083024;28;20037;-36
2024/01/13 12:29:29;;;;;;;52.75;29.23;;;4.30;99.90;;;;;;5090219;28;20032;-35
2024/01/13 12:32:03;;;;;;;54.58;29.95;;;4.40;99.90;;;;;;5083983;28;20139;-36
2024/01/13 12:34:31;;;;;;;52.67;28.20;;;4.40;99.90;;;;;;5091677;28;20071;-44
2024/01/13 12:36:57;;;;;;;50.25;27.35;;;4.50;99.90;;;;;;5085524;28;20032;-39
2024/01/13 12:39:24;;;;;;;51.63;26.63;;;4.60;99.90;;;;;;5085165;28;20050;-38
2024/01/13 12:41:51;;;;;;;45.97;25.15;;;4.60;99.90;;;;;;5084475;28;20085;-38
2024/01/13 12:44:17;;;;;;;50.35;26.88;;;4.70;99.90;;;;;;5085873;28;20592;-41
2024/01/13 12:46:42;;;;;;;45.65;25.38;;;4.60;99.90;;;;;;5083384;28;20064;-42